createdAt,value
2022-11-24T00:00:05.102Z,7.7
2022-11-24T00:05:05.096Z,7.5
2022-11-24T00:10:05.101Z,6.9
2022-11-24T00:15:05.105Z,5.7
2022-11-24T00:20:05.160Z,5.4
2022-11-24T00:25:05.108Z,5.4
2022-11-24T00:30:05.105Z,4.8
2022-11-24T00:35:05.109Z,4.9
2022-11-24T00:40:05.093Z,4.3
2022-11-24T00:45:13.415Z,5.1
2022-11-24T00:50:05.109Z,4.1
2022-11-24T00:55:05.110Z,4.1
2022-11-24T01:00:05.095Z,4
2022-11-24T01:05:05.102Z,5.5
2022-11-24T01:10:05.102Z,5
2022-11-24T01:15:05.098Z,4.9
2022-11-24T01:20:05.101Z,4.7
2022-11-24T01:25:05.106Z,4.7
2022-11-24T01:30:05.105Z,5.1
2022-11-24T01:35:05.108Z,5
2022-11-24T01:40:05.101Z,5
2022-11-24T01:45:05.103Z,6.1
2022-11-24T01:50:05.090Z,6.3
2022-11-24T01:55:05.100Z,6.3
2022-11-24T02:00:05.088Z,5
2022-11-24T02:05:05.110Z,4.9
2022-11-24T02:10:05.109Z,5.3
2022-11-24T02:15:05.105Z,5.1
2022-11-24T02:20:05.094Z,5.5
2022-11-24T02:25:05.100Z,5.5
2022-11-24T02:30:05.101Z,4.5
2022-11-24T02:35:05.098Z,5
2022-11-24T02:40:05.090Z,4.6
2022-11-24T02:45:05.098Z,5.2
2022-11-24T02:50:05.101Z,5.8
2022-11-24T02:55:05.096Z,5.8
2022-11-24T03:00:05.111Z,5.7
2022-11-24T03:05:05.128Z,5.2
2022-11-24T03:10:05.116Z,5.1
2022-11-24T03:15:05.114Z,4.6
2022-11-24T03:20:05.521Z,4.8
2022-11-24T03:25:05.103Z,4.8
2022-11-24T03:30:05.089Z,4.7
2022-11-24T03:35:05.094Z,3.9
2022-11-24T03:40:05.101Z,5.2
2022-11-24T03:45:23.002Z,4.5
2022-11-24T03:50:05.171Z,5
2022-11-24T03:55:05.093Z,5
2022-11-24T04:00:05.100Z,5.4
2022-11-24T04:05:05.127Z,4.7
2022-11-24T04:10:05.091Z,5.2
2022-11-24T04:15:05.098Z,4.7
2022-11-24T04:20:05.094Z,4.9
2022-11-24T04:25:05.110Z,4.9
2022-11-24T04:30:05.100Z,4.7
2022-11-24T04:35:05.105Z,5
2022-11-24T04:40:05.097Z,5.3
2022-11-24T04:45:05.100Z,6.9
2022-11-24T04:50:05.104Z,5.2
2022-11-24T04:55:05.102Z,5.2
2022-11-24T05:00:05.100Z,5.7
2022-11-24T05:05:05.100Z,5.2
2022-11-24T05:10:05.100Z,5.1
2022-11-24T05:15:05.102Z,5
2022-11-24T05:20:05.097Z,5.3
2022-11-24T05:25:05.102Z,5.3
2022-11-24T05:30:05.098Z,5.1
2022-11-24T05:35:05.092Z,5.2
2022-11-24T05:40:05.103Z,8.2
2022-11-24T05:45:05.102Z,5.9
2022-11-24T05:50:05.107Z,5.6
2022-11-24T05:55:05.096Z,5.6
2022-11-24T06:00:05.090Z,5.7
2022-11-24T06:05:05.102Z,5.5
2022-11-24T06:10:05.105Z,4.9
2022-11-24T06:15:05.100Z,5.6
2022-11-24T06:20:05.094Z,6
2022-11-24T06:25:05.100Z,6
2022-11-24T06:30:05.114Z,4.8
2022-11-24T06:35:05.103Z,5.5
2022-11-24T06:40:05.113Z,5
2022-11-24T06:45:08.960Z,5.6
2022-11-24T06:50:05.087Z,5.8
2022-11-24T06:55:05.105Z,5.8
2022-11-24T07:00:05.098Z,4.1
2022-11-24T07:05:05.099Z,5
2022-11-24T07:10:05.091Z,4.3
2022-11-24T07:15:05.108Z,3.7
2022-11-24T07:20:05.097Z,4.6
2022-11-24T07:25:05.102Z,4.6
2022-11-24T07:30:05.103Z,4.5
2022-11-24T07:35:05.106Z,4.8
2022-11-24T07:40:05.087Z,3.6
2022-11-24T07:45:05.094Z,4.3
2022-11-24T07:50:05.096Z,4.3
2022-11-24T07:55:05.102Z,4.3
2022-11-24T08:00:05.101Z,4.8
2022-11-24T08:05:05.107Z,5.5
2022-11-24T08:10:05.095Z,4.9
2022-11-24T08:15:08.009Z,5.7
2022-11-24T08:20:05.089Z,4.4
2022-11-24T08:25:05.098Z,4.4
2022-11-24T08:30:05.316Z,4.8
2022-11-24T08:35:20.189Z,6.3
2022-11-24T08:40:05.099Z,6.1
2022-11-24T08:45:19.709Z,4.5
2022-11-24T08:50:05.102Z,6
2022-11-24T08:55:05.100Z,6
2022-11-24T09:00:05.105Z,6.8
2022-11-24T09:05:07.205Z,5.5
2022-11-24T09:10:05.096Z,7
2022-11-24T09:15:05.107Z,6.2
2022-11-24T09:20:05.093Z,6.4
2022-11-24T09:25:05.106Z,6.4
2022-11-24T09:30:05.097Z,7.7
2022-11-24T09:35:05.106Z,6.1
2022-11-24T09:40:05.091Z,6.6
2022-11-24T09:45:05.106Z,5.4
2022-11-24T09:50:05.100Z,5.8
2022-11-24T09:55:05.101Z,5.8
2022-11-24T10:00:05.102Z,4.3
2022-11-24T10:05:05.159Z,4.1
2022-11-24T10:10:05.097Z,3.9
2022-11-24T10:15:05.104Z,4
2022-11-24T10:20:05.102Z,4
2022-11-24T10:25:05.100Z,4
2022-11-24T10:30:05.196Z,4.5
2022-11-24T10:35:05.113Z,4
2022-11-24T10:40:05.105Z,3.3
2022-11-24T10:45:05.104Z,3.3
2022-11-24T10:50:05.100Z,3.1
2022-11-24T10:55:05.103Z,3.1
2022-11-24T11:00:05.100Z,3.2
2022-11-24T11:05:05.096Z,2.7
2022-11-24T11:10:05.118Z,2.8
2022-11-24T11:15:05.097Z,2.5
2022-11-24T11:20:05.363Z,2.9
2022-11-24T11:25:05.112Z,2.9
2022-11-24T11:35:05.115Z,2.6
2022-11-24T11:40:05.099Z,3.4
2022-11-24T11:45:05.100Z,2.7
2022-11-24T11:50:05.098Z,2.4
2022-11-24T11:55:05.096Z,2.4
2022-11-24T12:00:05.090Z,2.5
2022-11-24T12:05:05.107Z,2.7
2022-11-24T12:10:05.105Z,2.4
2022-11-24T12:15:10.453Z,2.9
2022-11-24T12:20:05.101Z,3.4
2022-11-24T12:25:05.096Z,3.4
2022-11-24T12:30:05.092Z,2.7
2022-11-24T12:35:05.095Z,3.2
2022-11-24T12:40:05.109Z,2.7
2022-11-24T12:45:05.097Z,2.8
2022-11-24T12:50:05.107Z,2.2
2022-11-24T12:55:05.102Z,2.2
2022-11-24T13:00:05.090Z,2.3
2022-11-24T13:05:05.105Z,2.7
2022-11-24T13:10:05.090Z,2.7
2022-11-24T13:15:05.125Z,2.4
2022-11-24T13:20:05.089Z,2.6
2022-11-24T13:25:05.110Z,2.6
2022-11-24T13:30:05.092Z,3
2022-11-24T13:35:05.153Z,2.4
2022-11-24T13:40:05.107Z,3.1
2022-11-24T13:45:05.141Z,2.4
2022-11-24T13:50:05.104Z,3.1
2022-11-24T13:55:10.102Z,3.1
2022-11-24T14:00:05.088Z,4.2
2022-11-24T14:05:05.106Z,3.2
2022-11-24T14:10:05.089Z,2.8
2022-11-24T14:15:05.102Z,5.2
2022-11-24T14:20:05.098Z,18.1
2022-11-24T14:25:05.108Z,18.1
2022-11-24T14:30:05.097Z,9.3
2022-11-24T14:35:05.137Z,7.4
2022-11-24T14:40:05.091Z,2.8
2022-11-24T14:45:05.096Z,4.3
2022-11-24T14:50:05.133Z,8.1
2022-11-24T14:55:21.659Z,8.1
2022-11-24T15:00:05.092Z,4
2022-11-24T15:05:05.463Z,3.4
2022-11-24T15:10:05.085Z,10.3
2022-11-24T15:15:05.138Z,5.2
2022-11-24T15:20:05.110Z,3.5
2022-11-24T15:25:05.111Z,3.5
2022-11-24T15:30:05.130Z,4.1
2022-11-24T15:35:05.090Z,5.2
2022-11-24T15:40:05.169Z,11.5
2022-11-24T15:45:05.095Z,18.6
2022-11-24T15:50:05.097Z,11
2022-11-24T15:55:05.094Z,11
2022-11-24T16:00:05.086Z,7.9
2022-11-24T16:05:05.088Z,7
2022-11-24T16:10:05.088Z,8.9
2022-11-24T16:15:05.185Z,7.4
2022-11-24T16:20:05.192Z,11.3
2022-11-24T16:25:05.102Z,11.3
2022-11-24T16:30:05.090Z,6.9
2022-11-24T16:35:05.100Z,6
2022-11-24T16:40:05.109Z,5.9
2022-11-24T16:45:05.104Z,5.3
2022-11-24T16:50:05.096Z,15.3
2022-11-24T16:55:05.108Z,15.3
2022-11-24T17:00:05.097Z,7.7
2022-11-24T17:05:05.102Z,5.7
2022-11-24T17:10:05.092Z,5.2
2022-11-24T17:15:31.490Z,4.9
2022-11-24T17:20:05.096Z,4.9
2022-11-24T17:25:05.095Z,4.9
2022-11-24T17:30:05.095Z,4.7
2022-11-24T17:35:05.091Z,5.5
2022-11-24T17:40:27.149Z,4.5
2022-11-24T17:45:05.089Z,5.5
2022-11-24T17:50:05.105Z,5
2022-11-24T17:55:05.106Z,5
2022-11-24T18:00:05.104Z,4.4
2022-11-24T18:05:05.109Z,4.2
2022-11-24T18:10:05.091Z,4
2022-11-24T18:15:05.099Z,4
2022-11-24T18:20:05.091Z,3.6
2022-11-24T18:25:05.089Z,3.6
2022-11-24T18:30:05.093Z,4.5
2022-11-24T18:35:05.091Z,4
2022-11-24T18:40:05.083Z,4.3
2022-11-24T18:45:05.094Z,4.8
2022-11-24T18:50:05.101Z,5.2
2022-11-24T18:55:05.098Z,5.2
2022-11-24T19:00:05.083Z,4.8
2022-11-24T19:05:05.094Z,4.8
2022-11-24T19:10:05.149Z,4.7
2022-11-24T19:15:05.100Z,5.4
2022-11-24T19:20:05.095Z,6.4
2022-11-24T19:25:05.096Z,6.4
2022-11-24T19:30:05.082Z,6.3
2022-11-24T19:35:05.102Z,5.6
2022-11-24T19:40:05.089Z,5.3
2022-11-24T19:45:05.096Z,5.9
2022-11-24T19:50:09.058Z,5.9
2022-11-24T19:55:05.095Z,5.9
2022-11-24T20:00:05.101Z,5.5
2022-11-24T20:05:05.102Z,5.3
2022-11-24T20:10:07.855Z,6.4
2022-11-24T20:15:05.106Z,5.7
2022-11-24T20:20:05.093Z,6.6
2022-11-24T20:25:05.093Z,6.6
2022-11-24T20:30:05.092Z,6.2
2022-11-24T20:35:05.099Z,6.6
2022-11-24T20:40:05.090Z,6.3
2022-11-24T20:45:05.097Z,5.5
2022-11-24T20:50:05.095Z,6.5
2022-11-24T20:55:05.102Z,6.5
2022-11-24T21:00:05.088Z,6.1
2022-11-24T21:05:05.094Z,5.5
2022-11-24T21:10:05.090Z,6
2022-11-24T21:15:05.093Z,5.6
2022-11-24T21:20:05.094Z,4.9
2022-11-24T21:25:05.108Z,4.9
2022-11-24T21:30:05.083Z,4.9
2022-11-24T21:35:05.100Z,6.7
2022-11-24T21:40:05.086Z,6.9
2022-11-24T21:45:05.098Z,8.9
2022-11-24T21:50:05.105Z,13.4
2022-11-24T21:55:05.104Z,13.4
2022-11-24T22:00:05.103Z,9.4
2022-11-24T22:05:05.097Z,8.9
2022-11-24T22:10:05.098Z,6.4
2022-11-24T22:15:05.102Z,7.4
2022-11-24T22:20:05.168Z,6.2
2022-11-24T22:25:05.097Z,6.2
2022-11-24T22:30:05.087Z,5.3
2022-11-24T22:35:05.100Z,5.9
2022-11-24T22:40:05.086Z,4.9
2022-11-24T22:45:05.086Z,4.8
2022-11-24T22:50:05.084Z,5.5
2022-11-24T22:55:05.095Z,5.5
2022-11-24T23:00:05.154Z,5.7
2022-11-24T23:05:05.102Z,5.3
2022-11-24T23:10:05.091Z,5.2
2022-11-24T23:15:05.101Z,4.8
2022-11-24T23:20:05.339Z,4.4
2022-11-24T23:25:05.102Z,4.4
2022-11-24T23:30:05.091Z,4
2022-11-24T23:35:07.526Z,4.4
2022-11-24T23:40:05.091Z,4.1
2022-11-24T23:45:05.095Z,4.5
2022-11-24T23:50:05.077Z,5
2022-11-24T23:55:05.093Z,5
